EmailTwitter


Surface observations / United Kingdom / EGTE (03839)

Regions: Quebec | Canada | USA | Europe | France | UK | Elsewhere
Station
Display
Info & Location for EGTE (03839) | Help decoding METAR

Weather Conditions observed on 2019/01/21 at 07:50 UTC at EXETER AIRPORT, UK (EGTE)

Obstruction(s) to Vision: fog.

Temperature: 1.0 Celsius.

Dewpoint: 1.0 Celsius.

Relative Humidity: 100%

Winds: Variable at 4 km/h or 2 knots.

Mean Sea level Pressure: 102.50 kilopascals.

Horizontal visibility: 0.09 statute miles or 0.15 kilometers.

Coded METAR:

EGTE 210750Z VRB02KT 0150 R26/0225 FG NSC 01/01 Q1025=